createdAt,value
2023-01-17T00:01:34.531Z,8.60
2023-01-17T00:04:20.331Z,8.50
2023-01-17T00:07:06.206Z,9.40
2023-01-17T00:09:52.001Z,9.70
2023-01-17T00:12:22.324Z,8.50
2023-01-17T00:17:16.520Z,8.00
2023-01-17T00:20:02.513Z,8.90
2023-01-17T00:22:49.321Z,9.80
2023-01-17T00:25:39.714Z,10.00
2023-01-17T00:28:06.962Z,8.60
2023-01-17T00:30:37.005Z,8.80
2023-01-17T00:33:04.125Z,8.90
2023-01-17T00:35:33.949Z,9.00
2023-01-17T00:38:07.547Z,10.30
2023-01-17T00:40:35.405Z,8.00
2023-01-17T00:43:21.212Z,8.30
2023-01-17T00:46:07.181Z,8.70
2023-01-17T00:48:52.986Z,8.80
2023-01-17T00:51:38.882Z,9.70
2023-01-17T00:54:24.761Z,9.10
2023-01-17T00:57:11.046Z,8.60
2023-01-17T00:59:56.933Z,8.80
2023-01-17T01:02:42.886Z,9.50
2023-01-17T01:05:28.817Z,8.80
2023-01-17T01:08:15.043Z,9.50
2023-01-17T01:11:01.826Z,9.50
2023-01-17T01:13:48.175Z,8.10
2023-01-17T01:16:34.570Z,8.20
2023-01-17T01:19:20.511Z,8.80
2023-01-17T01:22:06.506Z,8.50
2023-01-17T01:24:52.595Z,9.40
2023-01-17T01:27:38.381Z,10.00
2023-01-17T01:30:25.195Z,8.10
2023-01-17T01:33:10.996Z,7.60
2023-01-17T01:35:38.025Z,8.40
2023-01-17T01:38:05.071Z,8.00
2023-01-17T01:40:32.223Z,9.10
2023-01-17T01:43:00.111Z,8.00
2023-01-17T01:45:29.135Z,8.30
2023-01-17T01:48:05.795Z,6.60
2023-01-17T01:50:34.243Z,7.80
2023-01-17T01:53:02.298Z,8.00
2023-01-17T01:55:36.461Z,7.90
2023-01-17T01:58:09.208Z,7.70
2023-01-17T02:00:36.803Z,6.60
2023-01-17T02:03:12.325Z,7.20
2023-01-17T02:05:40.073Z,7.10
2023-01-17T02:08:41.592Z,7.10
2023-01-17T02:11:11.030Z,7.10
2023-01-17T02:13:38.080Z,5.80
2023-01-17T02:16:16.413Z,5.80
2023-01-17T02:18:51.338Z,5.80
2023-01-17T02:21:28.503Z,7.30
2023-01-17T02:24:27.304Z,6.80
2023-01-17T02:27:11.853Z,5.90
2023-01-17T02:29:57.757Z,5.70
2023-01-17T02:32:51.627Z,6.20
2023-01-17T02:35:22.641Z,7.00
2023-01-17T02:38:01.543Z,6.40
2023-01-17T02:40:36.242Z,6.60
2023-01-17T02:43:06.961Z,6.30
2023-01-17T02:45:34.110Z,6.60
2023-01-17T02:48:01.244Z,6.00
2023-01-17T02:50:35.061Z,4.90
2023-01-17T02:53:05.169Z,5.80
2023-01-17T02:56:06.105Z,6.30
2023-01-17T02:59:01.827Z,6.50
2023-01-17T03:01:53.842Z,6.20
2023-01-17T03:04:44.879Z,7.00
2023-01-17T03:07:16.535Z,5.30
2023-01-17T03:09:47.570Z,6.10
2023-01-17T03:12:14.920Z,7.30
2023-01-17T03:14:42.081Z,7.00
2023-01-17T03:17:09.321Z,6.60
2023-01-17T03:19:36.470Z,6.80
2023-01-17T03:22:03.625Z,6.30
2023-01-17T03:24:30.772Z,6.40
2023-01-17T03:26:57.925Z,6.20
2023-01-17T03:29:25.066Z,7.30
2023-01-17T03:31:52.224Z,7.70
2023-01-17T03:34:19.286Z,8.70
2023-01-17T03:36:46.423Z,5.90
2023-01-17T03:39:13.565Z,7.00
2023-01-17T03:41:40.628Z,7.00
2023-01-17T03:44:07.760Z,7.80
2023-01-17T03:46:34.908Z,6.70
2023-01-17T03:49:01.974Z,8.00
2023-01-17T03:51:29.106Z,8.90
2023-01-17T03:53:56.210Z,7.50
2023-01-17T03:56:23.507Z,8.00
2023-01-17T03:58:51.805Z,8.00
2023-01-17T04:01:19.465Z,8.90
2023-01-17T04:03:46.716Z,9.50
2023-01-17T04:06:13.953Z,10.70
2023-01-17T04:08:41.920Z,9.60
2023-01-17T04:11:08.976Z,9.70
2023-01-17T04:13:36.114Z,10.10
2023-01-17T04:16:04.337Z,8.80
2023-01-17T04:18:31.546Z,10.00
2023-01-17T04:20:58.588Z,11.50
2023-01-17T04:23:25.736Z,10.90
2023-01-17T04:25:52.818Z,11.00
2023-01-17T04:28:19.933Z,10.30
2023-01-17T04:30:47.137Z,13.10
2023-01-17T04:33:14.537Z,13.00
2023-01-17T04:35:41.765Z,12.00
2023-01-17T04:38:08.877Z,12.40
2023-01-17T04:40:36.196Z,11.60
2023-01-17T04:43:03.249Z,11.50
2023-01-17T04:45:30.493Z,9.60
2023-01-17T04:48:03.169Z,11.10
2023-01-17T04:50:30.324Z,10.00
2023-01-17T04:52:57.471Z,12.50
2023-01-17T04:55:24.533Z,10.50
2023-01-17T04:57:51.571Z,10.50
2023-01-17T05:00:19.332Z,11.10
2023-01-17T05:02:46.514Z,11.40
2023-01-17T05:05:13.832Z,11.20
2023-01-17T05:07:41.088Z,11.40
2023-01-17T05:10:08.980Z,11.40
2023-01-17T05:12:36.003Z,11.10
2023-01-17T05:15:03.555Z,12.60
2023-01-17T05:17:30.620Z,12.30
2023-01-17T05:19:57.757Z,13.50
2023-01-17T05:22:24.949Z,12.80
2023-01-17T05:24:52.068Z,10.60
2023-01-17T05:27:19.105Z,12.10
2023-01-17T05:29:46.191Z,11.30
2023-01-17T05:32:13.396Z,12.60
2023-01-17T05:34:40.647Z,12.60
2023-01-17T05:37:07.698Z,10.40
2023-01-17T05:39:34.933Z,11.10
2023-01-17T05:42:02.115Z,12.70
2023-01-17T05:44:29.245Z,12.90
2023-01-17T05:46:56.703Z,12.80
2023-01-17T05:49:23.961Z,13.40
2023-01-17T05:51:52.411Z,12.50
2023-01-17T05:54:21.326Z,13.40
2023-01-17T05:56:48.626Z,13.30
2023-01-17T05:59:17.317Z,13.40
2023-01-17T06:01:48.102Z,15.20
2023-01-17T06:04:15.297Z,12.90
2023-01-17T06:06:42.503Z,13.20
2023-01-17T06:09:10.679Z,14.60
2023-01-17T06:11:37.831Z,14.50
2023-01-17T06:14:04.975Z,13.80
2023-01-17T06:16:32.020Z,12.90
2023-01-17T06:18:59.076Z,17.20
2023-01-17T06:21:26.129Z,14.20
2023-01-17T06:23:55.621Z,16.90
2023-01-17T06:26:23.021Z,15.00
2023-01-17T06:28:50.123Z,13.50
2023-01-17T06:31:17.502Z,13.40
2023-01-17T06:33:45.266Z,14.30
2023-01-17T06:36:13.009Z,15.30
2023-01-17T06:38:40.290Z,16.10
2023-01-17T06:41:07.464Z,13.70
2023-01-17T06:43:35.303Z,13.10
2023-01-17T06:46:02.466Z,13.30
2023-01-17T06:48:29.720Z,14.40
2023-01-17T06:50:58.286Z,14.10
2023-01-17T06:53:25.509Z,15.90
2023-01-17T06:55:56.248Z,12.50
2023-01-17T06:58:24.130Z,14.20
2023-01-17T07:00:51.647Z,13.40
2023-01-17T07:03:24.106Z,16.40
2023-01-17T07:05:51.532Z,15.10
2023-01-17T07:08:19.726Z,13.40
2023-01-17T07:10:47.652Z,15.50
2023-01-17T07:13:14.894Z,13.80
2023-01-17T07:15:42.424Z,14.90
2023-01-17T07:18:09.703Z,15.50
2023-01-17T07:20:38.803Z,14.00
2023-01-17T07:23:07.103Z,15.10
2023-01-17T07:33:13.598Z,15.80
2023-01-17T07:35:40.848Z,16.40
2023-01-17T07:38:39.192Z,15.90
2023-01-17T07:41:06.888Z,18.60
2023-01-17T07:43:35.787Z,15.90
2023-01-17T07:46:02.827Z,15.90
2023-01-17T07:48:31.047Z,16.70
2023-01-17T07:50:58.867Z,18.80
2023-01-17T07:53:27.137Z,17.50
2023-01-17T07:55:55.502Z,14.40
2023-01-17T07:58:28.149Z,17.10
2023-01-17T08:00:55.564Z,18.90
2023-01-17T08:03:22.809Z,19.10
2023-01-17T08:05:54.361Z,15.70
2023-01-17T08:08:22.141Z,14.90
2023-01-17T08:10:49.889Z,18.80
2023-01-17T08:13:17.242Z,20.40
2023-01-17T14:07:04.657Z,25.00
2023-01-17T14:09:42.196Z,24.60
2023-01-17T14:12:09.404Z,23.50
2023-01-17T14:14:45.537Z,20.70
2023-01-17T14:17:28.562Z,23.40
2023-01-17T14:19:57.935Z,22.20
2023-01-17T14:22:25.137Z,20.90
2023-01-17T14:25:17.782Z,21.30
2023-01-17T14:27:52.247Z,23.00
2023-01-17T14:30:40.363Z,20.10
2023-01-17T14:33:14.957Z,21.80
2023-01-17T14:35:58.173Z,23.20
2023-01-17T14:38:30.023Z,20.00
2023-01-17T14:41:00.280Z,19.70
2023-01-17T14:46:01.182Z,22.50
2023-01-17T14:48:28.495Z,20.50
2023-01-17T14:50:58.987Z,18.60
2023-01-17T14:53:31.826Z,22.20
2023-01-17T14:56:13.639Z,23.30
2023-01-17T14:58:42.450Z,19.70
2023-01-17T15:01:18.039Z,22.30
2023-01-17T15:03:47.453Z,24.00
2023-01-17T15:06:26.048Z,20.30
2023-01-17T15:08:56.091Z,21.60
2023-01-17T15:11:30.023Z,23.90
2023-01-17T15:13:59.348Z,22.20
2023-01-17T15:16:33.847Z,21.90
2023-01-17T15:19:01.562Z,23.00
2023-01-17T15:21:32.917Z,23.90
2023-01-17T15:24:08.540Z,20.70
2023-01-17T15:26:41.020Z,23.00
2023-01-17T15:29:22.737Z,23.20
2023-01-17T15:31:58.820Z,22.70
2023-01-17T15:34:36.587Z,20.80
2023-01-17T15:37:09.034Z,23.20
2023-01-17T15:39:40.825Z,26.90
2023-01-17T15:42:20.484Z,22.40
2023-01-17T15:44:49.163Z,23.10
2023-01-17T15:47:31.584Z,23.50
2023-01-17T15:50:02.064Z,21.90
2023-01-17T15:52:29.333Z,19.50
2023-01-17T15:55:13.430Z,22.40
2023-01-17T15:57:40.828Z,22.90
2023-01-17T16:00:09.524Z,20.20
2023-01-17T16:02:42.905Z,20.20
2023-01-17T16:05:31.364Z,23.70
2023-01-17T16:08:04.522Z,22.50
2023-01-17T16:10:33.910Z,23.90
2023-01-17T16:13:01.971Z,21.60
2023-01-17T16:15:29.439Z,21.40
2023-01-17T16:18:15.885Z,18.90
2023-01-17T16:20:47.540Z,20.90
2023-01-17T16:23:14.791Z,22.40
2023-01-17T16:25:41.971Z,21.70
2023-01-17T16:28:09.502Z,19.10
2023-01-17T23:31:24.036Z,20.90
2023-01-17T23:33:51.440Z,17.20
2023-01-17T23:36:18.695Z,17.70
2023-01-17T23:38:45.740Z,18.70
2023-01-17T23:41:31.651Z,17.10
2023-01-17T23:43:58.899Z,16.80
2023-01-17T23:46:29.512Z,19.40
2023-01-17T23:48:56.578Z,18.90
2023-01-17T23:51:29.960Z,17.00
2023-01-17T23:54:04.785Z,15.90
2023-01-17T23:56:32.077Z,18.30
2023-01-17T23:59:00.728Z,20.80
